sensor_id;sensor_type;location;lat;lon;timestamp;temperature;humidity
2465;DHT22;1244;54.326;10.074;2022-12-20T00:00:44;5.30;99.90
2465;DHT22;1244;54.326;10.074;2022-12-20T00:03:10;5.30;99.90
2465;DHT22;1244;54.326;10.074;2022-12-20T00:05:36;5.30;99.90
2465;DHT22;1244;54.326;10.074;2022-12-20T00:08:02;5.40;99.90
2465;DHT22;1244;54.326;10.074;2022-12-20T00:10:27;5.40;99.90
2465;DHT22;1244;54.326;10.074;2022-12-20T00:12:53;5.40;99.90
2465;DHT22;1244;54.326;10.074;2022-12-20T00:15:19;5.40;99.90
2465;DHT22;1244;54.326;10.074;2022-12-20T00:17:44;5.50;99.90
2465;DHT22;1244;54.326;10.074;2022-12-20T00:20:10;5.40;99.90
2465;DHT22;1244;54.326;10.074;2022-12-20T00:22:36;5.40;99.90
2465;DHT22;1244;54.326;10.074;2022-12-20T00:25:02;5.40;99.90
2465;DHT22;1244;54.326;10.074;2022-12-20T00:27:27;5.40;99.90
2465;DHT22;1244;54.326;10.074;2022-12-20T00:29:54;5.50;99.90
2465;DHT22;1244;54.326;10.074;2022-12-20T00:32:19;5.50;99.90
2465;DHT22;1244;54.326;10.074;2022-12-20T00:34:45;5.50;99.90
2465;DHT22;1244;54.326;10.074;2022-12-20T00:37:10;5.50;99.90
2465;DHT22;1244;54.326;10.074;2022-12-20T00:39:36;5.50;99.90
2465;DHT22;1244;54.326;10.074;2022-12-20T00:42:01;5.40;99.90
2465;DHT22;1244;54.326;10.074;2022-12-20T00:44:27;5.50;99.90
2465;DHT22;1244;54.326;10.074;2022-12-20T00:46:52;5.60;99.90
2465;DHT22;1244;54.326;10.074;2022-12-20T00:49:18;5.50;99.90
2465;DHT22;1244;54.326;10.074;2022-12-20T00:51:44;5.50;99.90
2465;DHT22;1244;54.326;10.074;2022-12-20T00:54:09;5.50;99.90
2465;DHT22;1244;54.326;10.074;2022-12-20T00:56:35;5.50;99.90
2465;DHT22;1244;54.326;10.074;2022-12-20T00:59:00;5.50;99.90
2465;DHT22;1244;54.326;10.074;2022-12-20T01:01:31;5.50;99.90
2465;DHT22;1244;54.326;10.074;2022-12-20T01:03:57;5.60;99.90
2465;DHT22;1244;54.326;10.074;2022-12-20T01:06:23;5.60;99.90
2465;DHT22;1244;54.326;10.074;2022-12-20T01:08:50;5.60;99.90
2465;DHT22;1244;54.326;10.074;2022-12-20T01:11:21;5.60;99.90
2465;DHT22;1244;54.326;10.074;2022-12-20T01:13:49;5.60;99.90
2465;DHT22;1244;54.326;10.074;2022-12-20T01:16:18;5.60;99.90
2465;DHT22;1244;54.326;10.074;2022-12-20T01:18:44;5.60;99.90
2465;DHT22;1244;54.326;10.074;2022-12-20T01:21:12;5.70;99.90
2465;DHT22;1244;54.326;10.074;2022-12-20T01:23:38;5.60;99.90
2465;DHT22;1244;54.326;10.074;2022-12-20T01:26:07;5.70;99.90
2465;DHT22;1244;54.326;10.074;2022-12-20T01:28:37;5.70;99.90
2465;DHT22;1244;54.326;10.074;2022-12-20T01:31:10;5.70;99.90
2465;DHT22;1244;54.326;10.074;2022-12-20T01:33:36;5.80;99.90
2465;DHT22;1244;54.326;10.074;2022-12-20T01:36:07;5.70;99.90
2465;DHT22;1244;54.326;10.074;2022-12-20T01:38:33;5.80;99.90
2465;DHT22;1244;54.326;10.074;2022-12-20T01:41:00;5.80;99.90
2465;DHT22;1244;54.326;10.074;2022-12-20T01:46:09;5.70;99.90
2465;DHT22;1244;54.326;10.074;2022-12-20T01:48:34;5.80;99.90
2465;DHT22;1244;54.326;10.074;2022-12-20T01:51:00;5.70;99.90
2465;DHT22;1244;54.326;10.074;2022-12-20T01:53:26;5.80;99.90
2465;DHT22;1244;54.326;10.074;2022-12-20T01:55:52;5.70;99.90
2465;DHT22;1244;54.326;10.074;2022-12-20T01:58:19;5.70;99.90
2465;DHT22;1244;54.326;10.074;2022-12-20T02:00:45;5.80;99.90
2465;DHT22;1244;54.326;10.074;2022-12-20T02:03:13;5.70;99.90
2465;DHT22;1244;54.326;10.074;2022-12-20T02:05:41;5.70;99.90
2465;DHT22;1244;54.326;10.074;2022-12-20T02:08:07;5.80;99.90
2465;DHT22;1244;54.326;10.074;2022-12-20T02:10:48;5.70;99.90
2465;DHT22;1244;54.326;10.074;2022-12-20T02:13:42;5.80;99.90
2465;DHT22;1244;54.326;10.074;2022-12-20T02:16:14;5.80;99.90
2465;DHT22;1244;54.326;10.074;2022-12-20T02:21:22;5.80;99.90
2465;DHT22;1244;54.326;10.074;2022-12-20T02:29:35;5.80;99.90
2465;DHT22;1244;54.326;10.074;2022-12-20T02:32:23;5.80;99.90
2465;DHT22;1244;54.326;10.074;2022-12-20T02:34:50;5.80;99.90
2465;DHT22;1244;54.326;10.074;2022-12-20T02:37:16;5.80;99.90
2465;DHT22;1244;54.326;10.074;2022-12-20T02:39:43;5.70;99.90
2465;DHT22;1244;54.326;10.074;2022-12-20T02:42:12;5.70;99.90
2465;DHT22;1244;54.326;10.074;2022-12-20T02:44:49;5.80;99.90
2465;DHT22;1244;54.326;10.074;2022-12-20T02:47:38;5.80;99.90
2465;DHT22;1244;54.326;10.074;2022-12-20T02:50:06;5.80;99.90
2465;DHT22;1244;54.326;10.074;2022-12-20T02:52:33;5.80;99.90
2465;DHT22;1244;54.326;10.074;2022-12-20T02:54:59;5.80;99.90
2465;DHT22;1244;54.326;10.074;2022-12-20T02:57:41;5.80;99.90
2465;DHT22;1244;54.326;10.074;2022-12-20T03:00:18;5.90;99.90
2465;DHT22;1244;54.326;10.074;2022-12-20T03:02:44;5.90;99.90
2465;DHT22;1244;54.326;10.074;2022-12-20T03:05:50;5.80;99.90
2465;DHT22;1244;54.326;10.074;2022-12-20T03:08:16;5.90;99.90
2465;DHT22;1244;54.326;10.074;2022-12-20T03:10:42;5.90;99.90
2465;DHT22;1244;54.326;10.074;2022-12-20T03:13:08;5.80;99.90
2465;DHT22;1244;54.326;10.074;2022-12-20T03:15:40;5.80;99.90
2465;DHT22;1244;54.326;10.074;2022-12-20T03:18:06;5.80;99.90
2465;DHT22;1244;54.326;10.074;2022-12-20T03:20:31;5.70;99.90
2465;DHT22;1244;54.326;10.074;2022-12-20T03:22:57;5.80;99.90
2465;DHT22;1244;54.326;10.074;2022-12-20T03:25:22;5.80;99.90
2465;DHT22;1244;54.326;10.074;2022-12-20T03:27:48;5.80;99.90
2465;DHT22;1244;54.326;10.074;2022-12-20T03:30:14;5.70;99.90
2465;DHT22;1244;54.326;10.074;2022-12-20T03:32:39;5.70;99.90
2465;DHT22;1244;54.326;10.074;2022-12-20T03:35:05;5.70;99.90
2465;DHT22;1244;54.326;10.074;2022-12-20T03:37:31;5.70;99.90
2465;DHT22;1244;54.326;10.074;2022-12-20T03:39:56;5.70;99.90
2465;DHT22;1244;54.326;10.074;2022-12-20T03:42:22;5.80;99.90
2465;DHT22;1244;54.326;10.074;2022-12-20T03:44:47;5.80;99.90
2465;DHT22;1244;54.326;10.074;2022-12-20T03:47:13;5.80;99.90
2465;DHT22;1244;54.326;10.074;2022-12-20T03:49:39;5.80;99.90
2465;DHT22;1244;54.326;10.074;2022-12-20T03:52:04;5.70;99.90
2465;DHT22;1244;54.326;10.074;2022-12-20T03:54:30;5.90;99.90
2465;DHT22;1244;54.326;10.074;2022-12-20T03:56:56;5.90;99.90
2465;DHT22;1244;54.326;10.074;2022-12-20T03:59:21;5.90;99.90
2465;DHT22;1244;54.326;10.074;2022-12-20T04:01:47;5.90;99.90
2465;DHT22;1244;54.326;10.074;2022-12-20T04:04:13;6.00;99.90
2465;DHT22;1244;54.326;10.074;2022-12-20T04:06:39;5.90;99.90
2465;DHT22;1244;54.326;10.074;2022-12-20T04:09:05;5.90;99.90
2465;DHT22;1244;54.326;10.074;2022-12-20T04:11:31;5.90;99.90
2465;DHT22;1244;54.326;10.074;2022-12-20T04:13:56;5.90;99.90
2465;DHT22;1244;54.326;10.074;2022-12-20T04:16:25;5.90;99.90
2465;DHT22;1244;54.326;10.074;2022-12-20T04:18:51;5.90;99.90
2465;DHT22;1244;54.326;10.074;2022-12-20T04:21:27;5.90;99.90
2465;DHT22;1244;54.326;10.074;2022-12-20T04:23:53;6.00;99.90
2465;DHT22;1244;54.326;10.074;2022-12-20T04:26:19;6.00;99.90
2465;DHT22;1244;54.326;10.074;2022-12-20T04:28:45;6.00;99.90
2465;DHT22;1244;54.326;10.074;2022-12-20T04:31:11;5.90;99.90
2465;DHT22;1244;54.326;10.074;2022-12-20T04:33:37;6.00;99.90
2465;DHT22;1244;54.326;10.074;2022-12-20T04:36:03;5.90;99.90
2465;DHT22;1244;54.326;10.074;2022-12-20T04:38:29;5.90;99.90
2465;DHT22;1244;54.326;10.074;2022-12-20T04:40:55;5.90;99.90
2465;DHT22;1244;54.326;10.074;2022-12-20T04:43:21;6.00;99.90
2465;DHT22;1244;54.326;10.074;2022-12-20T04:45:49;6.00;99.90
2465;DHT22;1244;54.326;10.074;2022-12-20T04:48:16;5.90;99.90
2465;DHT22;1244;54.326;10.074;2022-12-20T04:50:41;6.00;99.90
2465;DHT22;1244;54.326;10.074;2022-12-20T04:53:10;5.90;99.90
2465;DHT22;1244;54.326;10.074;2022-12-20T04:55:54;5.90;99.90
2465;DHT22;1244;54.326;10.074;2022-12-20T04:58:20;6.00;99.90
2465;DHT22;1244;54.326;10.074;2022-12-20T05:00:45;5.90;99.90
2465;DHT22;1244;54.326;10.074;2022-12-20T05:03:11;5.90;99.90
2465;DHT22;1244;54.326;10.074;2022-12-20T05:05:38;6.00;99.90
2465;DHT22;1244;54.326;10.074;2022-12-20T05:08:03;5.90;99.90
2465;DHT22;1244;54.326;10.074;2022-12-20T05:10:29;6.00;99.90
2465;DHT22;1244;54.326;10.074;2022-12-20T05:12:54;5.90;99.90
2465;DHT22;1244;54.326;10.074;2022-12-20T05:15:20;6.00;99.90
2465;DHT22;1244;54.326;10.074;2022-12-20T05:17:45;6.00;99.90
2465;DHT22;1244;54.326;10.074;2022-12-20T05:20:11;6.00;99.90
2465;DHT22;1244;54.326;10.074;2022-12-20T05:22:37;6.00;99.90
2465;DHT22;1244;54.326;10.074;2022-12-20T05:25:21;6.00;99.90
2465;DHT22;1244;54.326;10.074;2022-12-20T05:28:06;6.00;99.90
2465;DHT22;1244;54.326;10.074;2022-12-20T05:30:31;6.00;99.90
2465;DHT22;1244;54.326;10.074;2022-12-20T05:32:57;6.00;99.90
2465;DHT22;1244;54.326;10.074;2022-12-20T05:35:22;6.00;99.90
2465;DHT22;1244;54.326;10.074;2022-12-20T05:37:48;6.00;99.90
2465;DHT22;1244;54.326;10.074;2022-12-20T05:40:13;6.10;99.90
2465;DHT22;1244;54.326;10.074;2022-12-20T05:42:40;6.10;99.90
2465;DHT22;1244;54.326;10.074;2022-12-20T05:45:06;6.10;99.90
2465;DHT22;1244;54.326;10.074;2022-12-20T05:47:32;6.00;99.90
2465;DHT22;1244;54.326;10.074;2022-12-20T05:49:59;6.00;99.90
2465;DHT22;1244;54.326;10.074;2022-12-20T05:52:25;6.00;99.90
2465;DHT22;1244;54.326;10.074;2022-12-20T05:54:50;6.10;99.90
2465;DHT22;1244;54.326;10.074;2022-12-20T05:57:16;6.00;99.90
2465;DHT22;1244;54.326;10.074;2022-12-20T05:59:42;6.10;99.90
2465;DHT22;1244;54.326;10.074;2022-12-20T06:02:07;6.10;99.90
2465;DHT22;1244;54.326;10.074;2022-12-20T06:04:35;6.10;99.90
2465;DHT22;1244;54.326;10.074;2022-12-20T06:07:00;6.10;99.90
2465;DHT22;1244;54.326;10.074;2022-12-20T06:09:26;6.10;99.90
2465;DHT22;1244;54.326;10.074;2022-12-20T06:11:51;6.20;99.90
2465;DHT22;1244;54.326;10.074;2022-12-20T06:14:17;6.30;99.90
2465;DHT22;1244;54.326;10.074;2022-12-20T06:16:43;6.30;99.90
2465;DHT22;1244;54.326;10.074;2022-12-20T06:19:08;6.30;99.90
2465;DHT22;1244;54.326;10.074;2022-12-20T06:21:34;6.30;99.90
2465;DHT22;1244;54.326;10.074;2022-12-20T06:23:59;6.30;99.90
2465;DHT22;1244;54.326;10.074;2022-12-20T06:26:25;6.30;99.90
2465;DHT22;1244;54.326;10.074;2022-12-20T06:28:51;6.40;99.90
2465;DHT22;1244;54.326;10.074;2022-12-20T06:31:19;6.40;99.90
2465;DHT22;1244;54.326;10.074;2022-12-20T06:33:44;6.40;99.90
2465;DHT22;1244;54.326;10.074;2022-12-20T06:36:10;6.40;99.90
2465;DHT22;1244;54.326;10.074;2022-12-20T06:38:35;6.40;99.90
2465;DHT22;1244;54.326;10.074;2022-12-20T06:41:01;6.40;99.90
2465;DHT22;1244;54.326;10.074;2022-12-20T06:43:27;6.50;99.90
2465;DHT22;1244;54.326;10.074;2022-12-20T06:45:53;6.50;99.90
2465;DHT22;1244;54.326;10.074;2022-12-20T06:48:19;6.50;99.90
2465;DHT22;1244;54.326;10.074;2022-12-20T06:50:47;6.50;99.90
2465;DHT22;1244;54.326;10.074;2022-12-20T06:53:13;6.50;99.90
2465;DHT22;1244;54.326;10.074;2022-12-20T06:55:39;6.50;99.90
2465;DHT22;1244;54.326;10.074;2022-12-20T06:58:04;6.60;99.90
2465;DHT22;1244;54.326;10.074;2022-12-20T07:00:30;6.60;99.90
2465;DHT22;1244;54.326;10.074;2022-12-20T07:02:57;6.60;99.90
2465;DHT22;1244;54.326;10.074;2022-12-20T07:05:22;6.50;99.90
2465;DHT22;1244;54.326;10.074;2022-12-20T07:07:48;6.60;99.90
2465;DHT22;1244;54.326;10.074;2022-12-20T07:10:14;6.60;99.90
2465;DHT22;1244;54.326;10.074;2022-12-20T07:12:40;6.60;99.90
2465;DHT22;1244;54.326;10.074;2022-12-20T07:15:06;6.60;99.90
2465;DHT22;1244;54.326;10.074;2022-12-20T07:17:32;6.70;99.90
2465;DHT22;1244;54.326;10.074;2022-12-20T07:19:58;6.70;99.90
2465;DHT22;1244;54.326;10.074;2022-12-20T07:22:23;6.70;99.90
2465;DHT22;1244;54.326;10.074;2022-12-20T07:24:50;6.70;99.90
2465;DHT22;1244;54.326;10.074;2022-12-20T07:27:15;6.70;99.90
2465;DHT22;1244;54.326;10.074;2022-12-20T07:29:41;6.80;99.90
2465;DHT22;1244;54.326;10.074;2022-12-20T07:32:07;6.80;99.90
2465;DHT22;1244;54.326;10.074;2022-12-20T07:34:35;6.80;99.90
2465;DHT22;1244;54.326;10.074;2022-12-20T07:37:00;6.80;99.90
2465;DHT22;1244;54.326;10.074;2022-12-20T07:39:26;6.80;99.90
2465;DHT22;1244;54.326;10.074;2022-12-20T07:41:55;6.90;99.90
2465;DHT22;1244;54.326;10.074;2022-12-20T07:44:22;6.80;99.90
2465;DHT22;1244;54.326;10.074;2022-12-20T07:46:48;6.90;99.90
2465;DHT22;1244;54.326;10.074;2022-12-20T07:49:13;6.90;99.90
2465;DHT22;1244;54.326;10.074;2022-12-20T07:51:43;6.90;99.90
2465;DHT22;1244;54.326;10.074;2022-12-20T07:54:12;6.90;99.90
2465;DHT22;1244;54.326;10.074;2022-12-20T07:56:42;6.90;99.90
2465;DHT22;1244;54.326;10.074;2022-12-20T07:59:13;6.90;99.90
2465;DHT22;1244;54.326;10.074;2022-12-20T08:01:42;6.90;99.90
2465;DHT22;1244;54.326;10.074;2022-12-20T08:04:13;7.00;99.90
2465;DHT22;1244;54.326;10.074;2022-12-20T08:06:41;7.00;99.90
2465;DHT22;1244;54.326;10.074;2022-12-20T08:09:07;7.10;99.90
2465;DHT22;1244;54.326;10.074;2022-12-20T08:11:36;7.00;99.90
2465;DHT22;1244;54.326;10.074;2022-12-20T08:14:03;7.00;99.90
2465;DHT22;1244;54.326;10.074;2022-12-20T08:16:30;7.10;99.90
2465;DHT22;1244;54.326;10.074;2022-12-20T08:18:56;7.10;99.90
2465;DHT22;1244;54.326;10.074;2022-12-20T08:21:21;7.10;99.90
2465;DHT22;1244;54.326;10.074;2022-12-20T08:23:47;7.10;99.90
2465;DHT22;1244;54.326;10.074;2022-12-20T08:26:15;7.10;99.90
2465;DHT22;1244;54.326;10.074;2022-12-20T08:28:41;7.10;99.90
2465;DHT22;1244;54.326;10.074;2022-12-20T08:31:08;7.10;99.90
2465;DHT22;1244;54.326;10.074;2022-12-20T08:33:36;7.20;99.90
2465;DHT22;1244;54.326;10.074;2022-12-20T08:36:04;7.20;99.90
2465;DHT22;1244;54.326;10.074;2022-12-20T08:38:31;7.20;99.90
2465;DHT22;1244;54.326;10.074;2022-12-20T08:41:16;7.20;99.90
2465;DHT22;1244;54.326;10.074;2022-12-20T08:43:42;7.20;99.90
2465;DHT22;1244;54.326;10.074;2022-12-20T08:46:09;7.20;99.90
2465;DHT22;1244;54.326;10.074;2022-12-20T08:48:35;7.30;99.90
2465;DHT22;1244;54.326;10.074;2022-12-20T08:51:02;7.30;99.90
2465;DHT22;1244;54.326;10.074;2022-12-20T08:53:29;7.30;99.90
2465;DHT22;1244;54.326;10.074;2022-12-20T08:56:06;7.40;99.90
2465;DHT22;1244;54.326;10.074;2022-12-20T08:58:33;7.40;99.90
2465;DHT22;1244;54.326;10.074;2022-12-20T09:00:59;7.40;99.90
2465;DHT22;1244;54.326;10.074;2022-12-20T09:03:29;7.50;99.90
2465;DHT22;1244;54.326;10.074;2022-12-20T09:05:56;7.40;99.90
2465;DHT22;1244;54.326;10.074;2022-12-20T09:08:22;7.50;99.90
2465;DHT22;1244;54.326;10.074;2022-12-20T09:10:47;7.50;99.90
2465;DHT22;1244;54.326;10.074;2022-12-20T09:13:13;7.50;99.90
2465;DHT22;1244;54.326;10.074;2022-12-20T09:15:38;7.50;99.90
2465;DHT22;1244;54.326;10.074;2022-12-20T09:18:04;7.60;99.90
2465;DHT22;1244;54.326;10.074;2022-12-20T09:20:30;7.60;99.90
2465;DHT22;1244;54.326;10.074;2022-12-20T09:22:57;7.60;99.90
2465;DHT22;1244;54.326;10.074;2022-12-20T09:25:23;7.60;99.90
2465;DHT22;1244;54.326;10.074;2022-12-20T09:27:48;7.60;99.90
2465;DHT22;1244;54.326;10.074;2022-12-20T09:30:14;7.60;99.90
2465;DHT22;1244;54.326;10.074;2022-12-20T09:32:39;7.60;99.90
2465;DHT22;1244;54.326;10.074;2022-12-20T09:35:05;7.60;99.90
2465;DHT22;1244;54.326;10.074;2022-12-20T09:37:31;7.70;99.90
2465;DHT22;1244;54.326;10.074;2022-12-20T09:39:57;7.70;99.90
2465;DHT22;1244;54.326;10.074;2022-12-20T09:42:27;7.70;99.90
2465;DHT22;1244;54.326;10.074;2022-12-20T09:45:24;7.70;99.90
2465;DHT22;1244;54.326;10.074;2022-12-20T09:47:50;7.80;99.90
2465;DHT22;1244;54.326;10.074;2022-12-20T09:50:18;7.80;99.90
2465;DHT22;1244;54.326;10.074;2022-12-20T09:55:59;7.80;99.90
2465;DHT22;1244;54.326;10.074;2022-12-20T10:01:18;7.90;99.90
2465;DHT22;1244;54.326;10.074;2022-12-20T10:03:44;7.90;99.90
2465;DHT22;1244;54.326;10.074;2022-12-20T10:06:34;7.90;99.90
2465;DHT22;1244;54.326;10.074;2022-12-20T10:08:58;7.90;99.90
2465;DHT22;1244;54.326;10.074;2022-12-20T10:14:07;7.90;99.90
2465;DHT22;1244;54.326;10.074;2022-12-20T10:16:44;7.90;99.90
2465;DHT22;1244;54.326;10.074;2022-12-20T10:22:16;8.00;99.90
2465;DHT22;1244;54.326;10.074;2022-12-20T10:24:50;8.00;99.90
2465;DHT22;1244;54.326;10.074;2022-12-20T10:27:19;8.00;99.90
2465;DHT22;1244;54.326;10.074;2022-12-20T10:29:46;8.00;99.90
2465;DHT22;1244;54.326;10.074;2022-12-20T10:32:16;8.00;99.90
2465;DHT22;1244;54.326;10.074;2022-12-20T10:35:01;8.00;99.90
2465;DHT22;1244;54.326;10.074;2022-12-20T10:38:01;7.90;99.90
2465;DHT22;1244;54.326;10.074;2022-12-20T10:40:31;8.00;99.90
2465;DHT22;1244;54.326;10.074;2022-12-20T10:42:58;8.00;99.90
2465;DHT22;1244;54.326;10.074;2022-12-20T10:45:34;8.00;99.90
2465;DHT22;1244;54.326;10.074;2022-12-20T10:48:03;8.00;99.90
2465;DHT22;1244;54.326;10.074;2022-12-20T10:50:29;8.00;99.90
2465;DHT22;1244;54.326;10.074;2022-12-20T10:55:36;8.00;99.90
2465;DHT22;1244;54.326;10.074;2022-12-20T10:58:12;8.00;99.90
2465;DHT22;1244;54.326;10.074;2022-12-20T11:00:39;8.00;99.90
2465;DHT22;1244;54.326;10.074;2022-12-20T11:03:18;8.00;99.90
2465;DHT22;1244;54.326;10.074;2022-12-20T11:05:59;8.00;99.90
2465;DHT22;1244;54.326;10.074;2022-12-20T11:08:28;8.00;99.90
2465;DHT22;1244;54.326;10.074;2022-12-20T11:11:28;8.00;99.90
2465;DHT22;1244;54.326;10.074;2022-12-20T11:13:55;8.00;99.90
2465;DHT22;1244;54.326;10.074;2022-12-20T11:16:38;8.00;99.90
2465;DHT22;1244;54.326;10.074;2022-12-20T11:22:20;8.10;99.90
2465;DHT22;1244;54.326;10.074;2022-12-20T11:27:40;8.20;99.90
2465;DHT22;1244;54.326;10.074;2022-12-20T11:36:09;8.20;99.90
2465;DHT22;1244;54.326;10.074;2022-12-20T11:38:55;8.20;99.90
2465;DHT22;1244;54.326;10.074;2022-12-20T11:41:49;8.20;99.90
2465;DHT22;1244;54.326;10.074;2022-12-20T11:47:17;8.30;99.90
2465;DHT22;1244;54.326;10.074;2022-12-20T11:51:04;8.30;99.90
2465;DHT22;1244;54.326;10.074;2022-12-20T11:53:08;8.30;99.90
2465;DHT22;1244;54.326;10.074;2022-12-20T11:55:39;8.30;99.90
2465;DHT22;1244;54.326;10.074;2022-12-20T12:00:46;8.30;99.90
2465;DHT22;1244;54.326;10.074;2022-12-20T12:03:35;8.30;99.90
2465;DHT22;1244;54.326;10.074;2022-12-20T12:06:08;8.30;99.90
2465;DHT22;1244;54.326;10.074;2022-12-20T12:11:33;8.30;99.90
2465;DHT22;1244;54.326;10.074;2022-12-20T12:14:01;8.30;99.90
2465;DHT22;1244;54.326;10.074;2022-12-20T12:16:35;8.30;99.90
2465;DHT22;1244;54.326;10.074;2022-12-20T12:19:02;8.30;99.90
2465;DHT22;1244;54.326;10.074;2022-12-20T12:21:34;8.30;99.90
2465;DHT22;1244;54.326;10.074;2022-12-20T12:26:52;8.30;99.90
2465;DHT22;1244;54.326;10.074;2022-12-20T12:29:19;8.30;99.90
2465;DHT22;1244;54.326;10.074;2022-12-20T12:31:56;8.40;99.90
2465;DHT22;1244;54.326;10.074;2022-12-20T12:34:46;8.30;99.90
2465;DHT22;1244;54.326;10.074;2022-12-20T12:45:40;8.40;99.90
2465;DHT22;1244;54.326;10.074;2022-12-20T12:48:19;8.40;99.90
2465;DHT22;1244;54.326;10.074;2022-12-20T12:50:49;8.40;99.90
2465;DHT22;1244;54.326;10.074;2022-12-20T12:53:20;8.40;99.90
2465;DHT22;1244;54.326;10.074;2022-12-20T12:55:48;8.40;99.90
2465;DHT22;1244;54.326;10.074;2022-12-20T13:00:55;8.40;99.90
2465;DHT22;1244;54.326;10.074;2022-12-20T13:03:41;8.40;99.90
2465;DHT22;1244;54.326;10.074;2022-12-20T13:11:33;8.40;99.90
2465;DHT22;1244;54.326;10.074;2022-12-20T13:17:43;8.40;99.90
2465;DHT22;1244;54.326;10.074;2022-12-20T13:19:40;8.40;99.90
2465;DHT22;1244;54.326;10.074;2022-12-20T13:25:02;8.50;99.90
2465;DHT22;1244;54.326;10.074;2022-12-20T13:27:31;8.40;99.90
2465;DHT22;1244;54.326;10.074;2022-12-20T13:43:16;8.40;99.90
2465;DHT22;1244;54.326;10.074;2022-12-20T13:45:47;8.40;99.90
2465;DHT22;1244;54.326;10.074;2022-12-20T13:48:21;8.40;99.90
2465;DHT22;1244;54.326;10.074;2022-12-20T13:50:51;8.40;99.90
2465;DHT22;1244;54.326;10.074;2022-12-20T13:53:23;8.40;99.90
2465;DHT22;1244;54.326;10.074;2022-12-20T13:55:50;8.40;99.90
2465;DHT22;1244;54.326;10.074;2022-12-20T14:00:49;8.40;99.90
2465;DHT22;1244;54.326;10.074;2022-12-20T14:03:28;8.40;99.90
2465;DHT22;1244;54.326;10.074;2022-12-20T14:06:02;8.40;99.90
2465;DHT22;1244;54.326;10.074;2022-12-20T14:08:32;8.40;99.90
2465;DHT22;1244;54.326;10.074;2022-12-20T14:13:41;8.40;99.90
2465;DHT22;1244;54.326;10.074;2022-12-20T14:16:14;8.40;99.90
2465;DHT22;1244;54.326;10.074;2022-12-20T14:18:40;8.40;99.90
2465;DHT22;1244;54.326;10.074;2022-12-20T14:21:06;8.40;99.90
2465;DHT22;1244;54.326;10.074;2022-12-20T14:26:00;8.40;99.90
2465;DHT22;1244;54.326;10.074;2022-12-20T14:28:30;8.40;99.90
2465;DHT22;1244;54.326;10.074;2022-12-20T14:30:59;8.40;99.90
2465;DHT22;1244;54.326;10.074;2022-12-20T14:33:30;8.40;99.90
2465;DHT22;1244;54.326;10.074;2022-12-20T14:36:15;8.30;99.90
2465;DHT22;1244;54.326;10.074;2022-12-20T14:38:43;8.30;99.90
2465;DHT22;1244;54.326;10.074;2022-12-20T14:44:01;8.30;99.90
2465;DHT22;1244;54.326;10.074;2022-12-20T14:46:28;8.30;99.90
2465;DHT22;1244;54.326;10.074;2022-12-20T14:49:13;8.30;99.90
2465;DHT22;1244;54.326;10.074;2022-12-20T14:51:41;8.30;99.90
2465;DHT22;1244;54.326;10.074;2022-12-20T14:54:18;8.30;99.90
2465;DHT22;1244;54.326;10.074;2022-12-20T14:56:46;8.30;99.90
2465;DHT22;1244;54.326;10.074;2022-12-20T14:59:14;8.30;99.90
2465;DHT22;1244;54.326;10.074;2022-12-20T15:01:40;8.30;99.90
2465;DHT22;1244;54.326;10.074;2022-12-20T15:04:30;8.30;99.90
2465;DHT22;1244;54.326;10.074;2022-12-20T15:06:58;8.30;99.90
2465;DHT22;1244;54.326;10.074;2022-12-20T15:09:24;8.30;99.90
2465;DHT22;1244;54.326;10.074;2022-12-20T15:11:50;8.30;99.90
2465;DHT22;1244;54.326;10.074;2022-12-20T15:14:27;8.30;99.90
2465;DHT22;1244;54.326;10.074;2022-12-20T15:16:57;8.30;99.90
2465;DHT22;1244;54.326;10.074;2022-12-20T15:19:22;8.30;99.90
2465;DHT22;1244;54.326;10.074;2022-12-20T15:21:48;8.30;99.90
2465;DHT22;1244;54.326;10.074;2022-12-20T15:24:17;8.30;99.90
2465;DHT22;1244;54.326;10.074;2022-12-20T15:26:44;8.30;99.90
2465;DHT22;1244;54.326;10.074;2022-12-20T15:29:24;8.30;99.90
2465;DHT22;1244;54.326;10.074;2022-12-20T15:31:52;8.30;99.90
2465;DHT22;1244;54.326;10.074;2022-12-20T15:34:33;8.30;99.90
2465;DHT22;1244;54.326;10.074;2022-12-20T15:36:59;8.30;99.90
2465;DHT22;1244;54.326;10.074;2022-12-20T15:39:27;8.30;99.90
2465;DHT22;1244;54.326;10.074;2022-12-20T15:41:53;8.30;99.90
2465;DHT22;1244;54.326;10.074;2022-12-20T15:44:23;8.30;99.90
2465;DHT22;1244;54.326;10.074;2022-12-20T15:46:49;8.30;99.90
2465;DHT22;1244;54.326;10.074;2022-12-20T15:49:24;8.30;99.90
2465;DHT22;1244;54.326;10.074;2022-12-20T15:51:51;8.30;99.90
2465;DHT22;1244;54.326;10.074;2022-12-20T15:54:27;8.30;99.90
2465;DHT22;1244;54.326;10.074;2022-12-20T15:56:57;8.30;99.90
2465;DHT22;1244;54.326;10.074;2022-12-20T15:59:22;8.30;99.90
2465;DHT22;1244;54.326;10.074;2022-12-20T16:01:48;8.30;99.90
2465;DHT22;1244;54.326;10.074;2022-12-20T16:04:16;8.30;99.90
2465;DHT22;1244;54.326;10.074;2022-12-20T16:06:43;8.30;99.90
2465;DHT22;1244;54.326;10.074;2022-12-20T16:09:09;8.30;99.90
2465;DHT22;1244;54.326;10.074;2022-12-20T16:11:34;8.30;99.90
2465;DHT22;1244;54.326;10.074;2022-12-20T16:14:00;8.30;99.90
2465;DHT22;1244;54.326;10.074;2022-12-20T16:16:32;8.30;99.90
2465;DHT22;1244;54.326;10.074;2022-12-20T16:18:58;8.30;99.90
2465;DHT22;1244;54.326;10.074;2022-12-20T16:21:26;8.30;99.90
2465;DHT22;1244;54.326;10.074;2022-12-20T16:23:52;8.30;99.90
2465;DHT22;1244;54.326;10.074;2022-12-20T16:26:21;8.30;99.90
2465;DHT22;1244;54.326;10.074;2022-12-20T16:28:48;8.30;99.90
2465;DHT22;1244;54.326;10.074;2022-12-20T16:31:24;8.30;99.90
2465;DHT22;1244;54.326;10.074;2022-12-20T16:33:50;8.30;99.90
2465;DHT22;1244;54.326;10.074;2022-12-20T16:36:16;8.30;99.90
2465;DHT22;1244;54.326;10.074;2022-12-20T16:38:42;8.40;99.90
2465;DHT22;1244;54.326;10.074;2022-12-20T16:41:18;8.40;99.90
2465;DHT22;1244;54.326;10.074;2022-12-20T16:43:45;8.40;99.90
2465;DHT22;1244;54.326;10.074;2022-12-20T16:46:16;8.40;99.90
2465;DHT22;1244;54.326;10.074;2022-12-20T16:48:42;8.40;99.90
2465;DHT22;1244;54.326;10.074;2022-12-20T16:51:27;8.30;99.90
2465;DHT22;1244;54.326;10.074;2022-12-20T16:53:58;8.30;99.90
2465;DHT22;1244;54.326;10.074;2022-12-20T16:56:25;8.30;99.90
2465;DHT22;1244;54.326;10.074;2022-12-20T16:58:51;8.40;99.90
2465;DHT22;1244;54.326;10.074;2022-12-20T17:01:20;8.40;99.90
2465;DHT22;1244;54.326;10.074;2022-12-20T17:03:48;8.40;99.90
2465;DHT22;1244;54.326;10.074;2022-12-20T17:06:14;8.40;99.90
2465;DHT22;1244;54.326;10.074;2022-12-20T17:08:41;8.40;99.90
2465;DHT22;1244;54.326;10.074;2022-12-20T17:11:28;8.40;99.90
2465;DHT22;1244;54.326;10.074;2022-12-20T17:13:55;8.40;99.90
2465;DHT22;1244;54.326;10.074;2022-12-20T17:16:22;8.40;99.90
2465;DHT22;1244;54.326;10.074;2022-12-20T17:18:50;8.50;99.90
2465;DHT22;1244;54.326;10.074;2022-12-20T17:21:26;8.40;99.90
2465;DHT22;1244;54.326;10.074;2022-12-20T17:23:54;8.40;99.90
2465;DHT22;1244;54.326;10.074;2022-12-20T17:26:24;8.40;99.90
2465;DHT22;1244;54.326;10.074;2022-12-20T17:28:52;8.40;99.90
2465;DHT22;1244;54.326;10.074;2022-12-20T17:31:35;8.40;99.90
2465;DHT22;1244;54.326;10.074;2022-12-20T17:34:06;8.40;99.90
2465;DHT22;1244;54.326;10.074;2022-12-20T17:36:33;8.40;99.90
2465;DHT22;1244;54.326;10.074;2022-12-20T17:38:59;8.40;99.90
2465;DHT22;1244;54.326;10.074;2022-12-20T17:41:27;8.40;99.90
2465;DHT22;1244;54.326;10.074;2022-12-20T17:43:54;8.40;99.90
2465;DHT22;1244;54.326;10.074;2022-12-20T17:46:20;8.40;99.90
2465;DHT22;1244;54.326;10.074;2022-12-20T17:48:46;8.40;99.90